sensor_id;sensor_type;location;lat;lon;timestamp;temperature;humidity
17887;DHT22;9069;52.044;7.472;2022-07-29T00:02:14;21.00;58.90
17887;DHT22;9069;52.044;7.472;2022-07-29T00:04:41;20.90;58.90
17887;DHT22;9069;52.044;7.472;2022-07-29T00:07:08;20.90;58.90
17887;DHT22;9069;52.044;7.472;2022-07-29T00:09:36;20.90;58.90
17887;DHT22;9069;52.044;7.472;2022-07-29T00:12:19;20.90;59.10
17887;DHT22;9069;52.044;7.472;2022-07-29T00:14:56;20.80;59.00
17887;DHT22;9069;52.044;7.472;2022-07-29T00:17:25;20.80;59.20
17887;DHT22;9069;52.044;7.472;2022-07-29T00:19:52;20.80;59.20
17887;DHT22;9069;52.044;7.472;2022-07-29T00:22:20;20.80;59.20
17887;DHT22;9069;52.044;7.472;2022-07-29T00:24:48;20.70;59.20
17887;DHT22;9069;52.044;7.472;2022-07-29T00:27:16;20.80;59.30
17887;DHT22;9069;52.044;7.472;2022-07-29T00:29:42;20.70;59.30
17887;DHT22;9069;52.044;7.472;2022-07-29T00:32:09;20.80;59.40
17887;DHT22;9069;52.044;7.472;2022-07-29T00:34:36;20.70;59.40
17887;DHT22;9069;52.044;7.472;2022-07-29T00:37:21;20.70;59.50
17887;DHT22;9069;52.044;7.472;2022-07-29T00:39:48;20.60;59.40
17887;DHT22;9069;52.044;7.472;2022-07-29T00:42:15;20.50;59.30
17887;DHT22;9069;52.044;7.472;2022-07-29T00:44:43;20.60;59.40
17887;DHT22;9069;52.044;7.472;2022-07-29T00:47:11;20.60;59.50
17887;DHT22;9069;52.044;7.472;2022-07-29T00:49:39;20.60;59.50
17887;DHT22;9069;52.044;7.472;2022-07-29T00:52:08;20.60;59.60
17887;DHT22;9069;52.044;7.472;2022-07-29T00:54:35;20.60;59.60
17887;DHT22;9069;52.044;7.472;2022-07-29T00:57:10;20.60;59.70
17887;DHT22;9069;52.044;7.472;2022-07-29T00:59:36;20.50;59.60
17887;DHT22;9069;52.044;7.472;2022-07-29T01:02:03;20.60;59.80
17887;DHT22;9069;52.044;7.472;2022-07-29T01:04:31;20.50;59.80
17887;DHT22;9069;52.044;7.472;2022-07-29T01:06:58;20.50;59.80
17887;DHT22;9069;52.044;7.472;2022-07-29T01:09:27;20.50;59.80
17887;DHT22;9069;52.044;7.472;2022-07-29T01:12:21;20.40;59.80
17887;DHT22;9069;52.044;7.472;2022-07-29T01:14:49;20.40;60.00
17887;DHT22;9069;52.044;7.472;2022-07-29T01:17:33;20.40;59.80
17887;DHT22;9069;52.044;7.472;2022-07-29T01:25:32;20.40;60.30
17887;DHT22;9069;52.044;7.472;2022-07-29T01:31:10;20.20;60.40
17887;DHT22;9069;52.044;7.472;2022-07-29T01:33:57;20.30;60.20
17887;DHT22;9069;52.044;7.472;2022-07-29T01:36:43;20.20;60.40
17887;DHT22;9069;52.044;7.472;2022-07-29T01:39:36;20.20;60.70
17887;DHT22;9069;52.044;7.472;2022-07-29T01:42:30;20.20;60.90
17887;DHT22;9069;52.044;7.472;2022-07-29T01:45:08;20.20;60.90
17887;DHT22;9069;52.044;7.472;2022-07-29T01:47:56;20.10;60.70
17887;DHT22;9069;52.044;7.472;2022-07-29T01:50:35;20.10;61.10
17887;DHT22;9069;52.044;7.472;2022-07-29T01:53:06;20.00;60.70
17887;DHT22;9069;52.044;7.472;2022-07-29T01:55:36;20.00;60.80
17887;DHT22;9069;52.044;7.472;2022-07-29T01:58:05;20.00;60.90
17887;DHT22;9069;52.044;7.472;2022-07-29T02:00:34;19.90;60.90
17887;DHT22;9069;52.044;7.472;2022-07-29T02:03:05;19.90;61.00
17887;DHT22;9069;52.044;7.472;2022-07-29T02:05:33;19.90;61.10
17887;DHT22;9069;52.044;7.472;2022-07-29T02:08:02;19.90;61.10
17887;DHT22;9069;52.044;7.472;2022-07-29T02:10:33;19.90;61.30
17887;DHT22;9069;52.044;7.472;2022-07-29T02:13:00;19.80;61.30
17887;DHT22;9069;52.044;7.472;2022-07-29T02:15:32;19.80;61.40
17887;DHT22;9069;52.044;7.472;2022-07-29T02:18:04;19.80;61.40
17887;DHT22;9069;52.044;7.472;2022-07-29T02:20:33;19.80;61.50
17887;DHT22;9069;52.044;7.472;2022-07-29T02:23:00;19.80;61.50
17887;DHT22;9069;52.044;7.472;2022-07-29T02:25:29;19.80;61.60
17887;DHT22;9069;52.044;7.472;2022-07-29T02:28:05;19.80;61.70
17887;DHT22;9069;52.044;7.472;2022-07-29T02:30:35;19.70;61.80
17887;DHT22;9069;52.044;7.472;2022-07-29T02:33:03;19.70;61.80
17887;DHT22;9069;52.044;7.472;2022-07-29T02:35:31;19.70;61.80
17887;DHT22;9069;52.044;7.472;2022-07-29T02:38:01;19.70;61.90
17887;DHT22;9069;52.044;7.472;2022-07-29T02:40:47;19.70;62.00
17887;DHT22;9069;52.044;7.472;2022-07-29T02:43:15;19.70;62.00
17887;DHT22;9069;52.044;7.472;2022-07-29T02:45:42;19.70;62.10
17887;DHT22;9069;52.044;7.472;2022-07-29T02:48:13;19.70;62.20
17887;DHT22;9069;52.044;7.472;2022-07-29T02:50:50;19.70;62.40
17887;DHT22;9069;52.044;7.472;2022-07-29T02:53:20;19.60;62.50
17887;DHT22;9069;52.044;7.472;2022-07-29T02:55:54;19.60;62.30
17887;DHT22;9069;52.044;7.472;2022-07-29T02:58:27;19.60;62.60
17887;DHT22;9069;52.044;7.472;2022-07-29T03:01:03;19.60;62.60
17887;DHT22;9069;52.044;7.472;2022-07-29T03:03:37;19.60;62.70
17887;DHT22;9069;52.044;7.472;2022-07-29T03:06:07;19.60;62.70
17887;DHT22;9069;52.044;7.472;2022-07-29T03:08:54;19.50;62.40
17887;DHT22;9069;52.044;7.472;2022-07-29T03:11:22;19.50;62.40
17887;DHT22;9069;52.044;7.472;2022-07-29T03:14:09;19.50;62.50
17887;DHT22;9069;52.044;7.472;2022-07-29T03:16:38;19.50;62.50
17887;DHT22;9069;52.044;7.472;2022-07-29T03:19:07;19.50;62.50
17887;DHT22;9069;52.044;7.472;2022-07-29T03:21:33;19.50;62.70
17887;DHT22;9069;52.044;7.472;2022-07-29T03:24:00;19.50;62.60
17887;DHT22;9069;52.044;7.472;2022-07-29T03:26:32;19.50;62.70
17887;DHT22;9069;52.044;7.472;2022-07-29T03:28:59;19.40;62.80
17887;DHT22;9069;52.044;7.472;2022-07-29T03:31:26;19.40;63.60
17887;DHT22;9069;52.044;7.472;2022-07-29T03:33:53;19.40;62.90
17887;DHT22;9069;52.044;7.472;2022-07-29T03:36:19;19.40;63.00
17887;DHT22;9069;52.044;7.472;2022-07-29T03:38:47;19.40;63.00
17887;DHT22;9069;52.044;7.472;2022-07-29T03:41:15;19.40;63.10
17887;DHT22;9069;52.044;7.472;2022-07-29T03:43:49;19.40;63.10
17887;DHT22;9069;52.044;7.472;2022-07-29T03:46:16;19.40;63.20
17887;DHT22;9069;52.044;7.472;2022-07-29T03:48:48;19.40;63.10
17887;DHT22;9069;52.044;7.472;2022-07-29T03:51:17;19.40;63.30
17887;DHT22;9069;52.044;7.472;2022-07-29T03:53:59;19.40;63.30
17887;DHT22;9069;52.044;7.472;2022-07-29T03:56:28;19.30;63.10
17887;DHT22;9069;52.044;7.472;2022-07-29T03:58:55;19.30;63.30
17887;DHT22;9069;52.044;7.472;2022-07-29T04:01:22;19.30;63.20
17887;DHT22;9069;52.044;7.472;2022-07-29T04:03:50;19.30;63.40
17887;DHT22;9069;52.044;7.472;2022-07-29T04:06:17;19.30;63.40
17887;DHT22;9069;52.044;7.472;2022-07-29T04:08:44;19.40;63.50
17887;DHT22;9069;52.044;7.472;2022-07-29T04:11:11;19.30;63.60
17887;DHT22;9069;52.044;7.472;2022-07-29T04:13:37;19.30;63.70
17887;DHT22;9069;52.044;7.472;2022-07-29T04:16:04;19.30;63.70
17887;DHT22;9069;52.044;7.472;2022-07-29T04:18:31;19.30;63.80
17887;DHT22;9069;52.044;7.472;2022-07-29T04:20:58;19.30;63.80
17887;DHT22;9069;52.044;7.472;2022-07-29T04:23:29;19.30;63.80
17887;DHT22;9069;52.044;7.472;2022-07-29T04:25:58;19.30;63.90
17887;DHT22;9069;52.044;7.472;2022-07-29T04:28:27;19.30;63.90
17887;DHT22;9069;52.044;7.472;2022-07-29T04:30:54;19.30;64.00
17887;DHT22;9069;52.044;7.472;2022-07-29T04:33:21;19.30;64.00
17887;DHT22;9069;52.044;7.472;2022-07-29T04:35:50;19.30;64.10
17887;DHT22;9069;52.044;7.472;2022-07-29T04:38:20;19.30;64.20
17887;DHT22;9069;52.044;7.472;2022-07-29T04:40:47;19.30;64.20
17887;DHT22;9069;52.044;7.472;2022-07-29T04:43:15;19.30;64.30
17887;DHT22;9069;52.044;7.472;2022-07-29T04:45:48;19.30;64.30
17887;DHT22;9069;52.044;7.472;2022-07-29T04:48:15;19.30;64.20
17887;DHT22;9069;52.044;7.472;2022-07-29T04:50:41;19.30;64.30
17887;DHT22;9069;52.044;7.472;2022-07-29T04:53:08;19.30;64.50
17887;DHT22;9069;52.044;7.472;2022-07-29T04:55:35;19.30;64.50
17887;DHT22;9069;52.044;7.472;2022-07-29T04:58:04;19.30;64.50
17887;DHT22;9069;52.044;7.472;2022-07-29T05:00:31;19.30;64.60
17887;DHT22;9069;52.044;7.472;2022-07-29T05:02:59;19.40;64.60
17887;DHT22;9069;52.044;7.472;2022-07-29T05:05:26;19.40;64.60
17887;DHT22;9069;52.044;7.472;2022-07-29T05:07:53;19.40;64.70
17887;DHT22;9069;52.044;7.472;2022-07-29T05:10:19;19.40;64.70
17887;DHT22;9069;52.044;7.472;2022-07-29T05:12:46;19.40;64.70
17887;DHT22;9069;52.044;7.472;2022-07-29T05:15:13;19.40;64.70
17887;DHT22;9069;52.044;7.472;2022-07-29T05:17:40;19.40;64.70
17887;DHT22;9069;52.044;7.472;2022-07-29T05:20:07;19.50;64.80
17887;DHT22;9069;52.044;7.472;2022-07-29T05:22:34;19.50;64.70
17887;DHT22;9069;52.044;7.472;2022-07-29T05:25:00;19.50;64.60
17887;DHT22;9069;52.044;7.472;2022-07-29T05:27:35;19.50;64.70
17887;DHT22;9069;52.044;7.472;2022-07-29T05:30:02;19.50;64.80
17887;DHT22;9069;52.044;7.472;2022-07-29T05:32:29;19.60;64.90
17887;DHT22;9069;52.044;7.472;2022-07-29T05:34:56;19.70;65.10
17887;DHT22;9069;52.044;7.472;2022-07-29T05:37:23;19.70;65.30
17887;DHT22;9069;52.044;7.472;2022-07-29T05:39:50;19.70;65.40
17887;DHT22;9069;52.044;7.472;2022-07-29T05:42:23;19.80;65.50
17887;DHT22;9069;52.044;7.472;2022-07-29T05:44:50;19.90;66.00
17887;DHT22;9069;52.044;7.472;2022-07-29T05:47:17;19.90;65.90
17887;DHT22;9069;52.044;7.472;2022-07-29T05:49:45;20.00;65.80
17887;DHT22;9069;52.044;7.472;2022-07-29T05:52:12;20.00;65.70
17887;DHT22;9069;52.044;7.472;2022-07-29T05:54:39;20.10;65.60
17887;DHT22;9069;52.044;7.472;2022-07-29T05:57:06;20.10;65.50
17887;DHT22;9069;52.044;7.472;2022-07-29T05:59:36;20.20;65.60
17887;DHT22;9069;52.044;7.472;2022-07-29T06:02:04;20.20;65.80
17887;DHT22;9069;52.044;7.472;2022-07-29T06:04:32;20.30;65.60
17887;DHT22;9069;52.044;7.472;2022-07-29T06:06:59;20.40;65.50
17887;DHT22;9069;52.044;7.472;2022-07-29T06:09:26;20.40;65.40
17887;DHT22;9069;52.044;7.472;2022-07-29T06:11:52;20.40;65.30
17887;DHT22;9069;52.044;7.472;2022-07-29T06:14:19;20.50;65.20
17887;DHT22;9069;52.044;7.472;2022-07-29T06:16:46;20.60;65.90
17887;DHT22;9069;52.044;7.472;2022-07-29T06:19:13;20.60;65.10
17887;DHT22;9069;52.044;7.472;2022-07-29T06:21:43;20.70;64.90
17887;DHT22;9069;52.044;7.472;2022-07-29T06:24:11;20.70;65.00
17887;DHT22;9069;52.044;7.472;2022-07-29T06:26:40;20.70;64.90
17887;DHT22;9069;52.044;7.472;2022-07-29T06:29:07;20.80;65.10
17887;DHT22;9069;52.044;7.472;2022-07-29T06:31:34;20.80;65.10
17887;DHT22;9069;52.044;7.472;2022-07-29T06:34:01;20.90;65.00
17887;DHT22;9069;52.044;7.472;2022-07-29T06:36:29;20.90;64.90
17887;DHT22;9069;52.044;7.472;2022-07-29T06:38:55;20.90;64.50
17887;DHT22;9069;52.044;7.472;2022-07-29T06:41:22;21.00;64.30
17887;DHT22;9069;52.044;7.472;2022-07-29T06:43:50;21.00;64.60
17887;DHT22;9069;52.044;7.472;2022-07-29T06:46:22;21.00;64.50
17887;DHT22;9069;52.044;7.472;2022-07-29T06:48:50;21.10;64.40
17887;DHT22;9069;52.044;7.472;2022-07-29T06:51:18;21.10;64.30
17887;DHT22;9069;52.044;7.472;2022-07-29T06:53:50;21.10;64.00
17887;DHT22;9069;52.044;7.472;2022-07-29T06:56:32;21.10;64.10
17887;DHT22;9069;52.044;7.472;2022-07-29T06:59:07;21.10;64.00
17887;DHT22;9069;52.044;7.472;2022-07-29T07:01:39;21.20;64.10
17887;DHT22;9069;52.044;7.472;2022-07-29T07:04:06;21.20;64.00
17887;DHT22;9069;52.044;7.472;2022-07-29T07:06:35;21.20;64.00
17887;DHT22;9069;52.044;7.472;2022-07-29T07:09:03;21.20;64.10
17887;DHT22;9069;52.044;7.472;2022-07-29T07:11:29;21.20;64.10
17887;DHT22;9069;52.044;7.472;2022-07-29T07:13:57;21.20;64.10
17887;DHT22;9069;52.044;7.472;2022-07-29T07:16:28;21.20;64.10
17887;DHT22;9069;52.044;7.472;2022-07-29T07:18:55;21.20;64.10
17887;DHT22;9069;52.044;7.472;2022-07-29T07:21:22;21.20;64.20
17887;DHT22;9069;52.044;7.472;2022-07-29T07:23:49;21.20;64.40
17887;DHT22;9069;52.044;7.472;2022-07-29T07:26:15;21.20;64.40
17887;DHT22;9069;52.044;7.472;2022-07-29T07:28:42;21.20;64.30
17887;DHT22;9069;52.044;7.472;2022-07-29T07:31:09;21.20;64.40
17887;DHT22;9069;52.044;7.472;2022-07-29T07:33:36;21.20;64.40
17887;DHT22;9069;52.044;7.472;2022-07-29T07:36:03;21.40;64.40
17887;DHT22;9069;52.044;7.472;2022-07-29T07:38:29;21.20;64.10
17887;DHT22;9069;52.044;7.472;2022-07-29T07:40:56;21.30;64.20
17887;DHT22;9069;52.044;7.472;2022-07-29T07:43:23;21.30;64.30
17887;DHT22;9069;52.044;7.472;2022-07-29T07:45:50;21.30;64.20
17887;DHT22;9069;52.044;7.472;2022-07-29T07:48:16;21.30;64.30
17887;DHT22;9069;52.044;7.472;2022-07-29T07:50:43;21.30;64.20
17887;DHT22;9069;52.044;7.472;2022-07-29T07:53:10;21.30;64.20
17887;DHT22;9069;52.044;7.472;2022-07-29T07:55:41;21.30;64.30
17887;DHT22;9069;52.044;7.472;2022-07-29T07:58:28;21.30;64.40
17887;DHT22;9069;52.044;7.472;2022-07-29T08:00:54;21.30;64.30
17887;DHT22;9069;52.044;7.472;2022-07-29T08:03:21;21.30;64.30
17887;DHT22;9069;52.044;7.472;2022-07-29T08:05:48;21.40;64.40
17887;DHT22;9069;52.044;7.472;2022-07-29T08:08:17;21.40;64.50
17887;DHT22;9069;52.044;7.472;2022-07-29T08:10:44;21.40;64.50
17887;DHT22;9069;52.044;7.472;2022-07-29T08:13:21;21.40;64.70
17887;DHT22;9069;52.044;7.472;2022-07-29T08:15:49;21.40;65.20
17887;DHT22;9069;52.044;7.472;2022-07-29T08:18:25;21.40;65.60
17887;DHT22;9069;52.044;7.472;2022-07-29T08:20:53;21.40;66.10
17887;DHT22;9069;52.044;7.472;2022-07-29T08:23:19;21.40;66.60
17887;DHT22;9069;52.044;7.472;2022-07-29T08:25:46;21.40;66.80
17887;DHT22;9069;52.044;7.472;2022-07-29T08:28:16;21.40;66.90
17887;DHT22;9069;52.044;7.472;2022-07-29T08:30:43;21.40;67.00
17887;DHT22;9069;52.044;7.472;2022-07-29T08:33:10;21.40;67.10
17887;DHT22;9069;52.044;7.472;2022-07-29T08:35:38;21.40;68.00
17887;DHT22;9069;52.044;7.472;2022-07-29T08:38:05;21.30;67.60
17887;DHT22;9069;52.044;7.472;2022-07-29T08:40:32;21.30;67.50
17887;DHT22;9069;52.044;7.472;2022-07-29T08:43:04;21.20;67.80
17887;DHT22;9069;52.044;7.472;2022-07-29T08:45:43;21.10;68.60
17887;DHT22;9069;52.044;7.472;2022-07-29T08:48:22;21.00;68.70
17887;DHT22;9069;52.044;7.472;2022-07-29T08:50:54;20.90;68.90
17887;DHT22;9069;52.044;7.472;2022-07-29T08:53:24;20.80;68.90
17887;DHT22;9069;52.044;7.472;2022-07-29T08:55:53;20.80;70.00
17887;DHT22;9069;52.044;7.472;2022-07-29T08:58:21;20.70;70.10
17887;DHT22;9069;52.044;7.472;2022-07-29T09:00:55;20.60;71.00
17887;DHT22;9069;52.044;7.472;2022-07-29T09:03:25;20.60;72.50
17887;DHT22;9069;52.044;7.472;2022-07-29T09:05:54;20.60;72.10
17887;DHT22;9069;52.044;7.472;2022-07-29T09:08:21;20.60;72.10
17887;DHT22;9069;52.044;7.472;2022-07-29T09:10:48;20.60;72.10
17887;DHT22;9069;52.044;7.472;2022-07-29T09:13:14;20.60;73.20
17887;DHT22;9069;52.044;7.472;2022-07-29T09:15:41;20.60;73.60
17887;DHT22;9069;52.044;7.472;2022-07-29T09:18:08;20.60;73.10
17887;DHT22;9069;52.044;7.472;2022-07-29T09:20:54;20.60;74.50
17887;DHT22;9069;52.044;7.472;2022-07-29T09:23:40;20.60;75.70
17887;DHT22;9069;52.044;7.472;2022-07-29T09:26:08;20.70;76.30
17887;DHT22;9069;52.044;7.472;2022-07-29T09:28:41;20.70;76.50
17887;DHT22;9069;52.044;7.472;2022-07-29T09:31:08;20.70;78.00
17887;DHT22;9069;52.044;7.472;2022-07-29T09:33:35;20.70;77.10
17887;DHT22;9069;52.044;7.472;2022-07-29T09:36:07;20.70;78.20
17887;DHT22;9069;52.044;7.472;2022-07-29T09:38:34;20.70;79.60
17887;DHT22;9069;52.044;7.472;2022-07-29T09:41:03;20.70;78.70
17887;DHT22;9069;52.044;7.472;2022-07-29T09:43:32;20.70;78.10
17887;DHT22;9069;52.044;7.472;2022-07-29T09:46:13;20.80;77.90
17887;DHT22;9069;52.044;7.472;2022-07-29T09:48:39;20.70;79.80
17887;DHT22;9069;52.044;7.472;2022-07-29T09:51:20;20.70;78.40
17887;DHT22;9069;52.044;7.472;2022-07-29T09:53:55;20.70;80.50
17887;DHT22;9069;52.044;7.472;2022-07-29T09:56:41;20.70;79.40
17887;DHT22;9069;52.044;7.472;2022-07-29T09:59:09;20.70;81.20
17887;DHT22;9069;52.044;7.472;2022-07-29T10:01:37;20.80;80.60
17887;DHT22;9069;52.044;7.472;2022-07-29T10:04:04;20.70;81.10
17887;DHT22;9069;52.044;7.472;2022-07-29T10:06:31;20.80;81.60
17887;DHT22;9069;52.044;7.472;2022-07-29T10:09:08;20.80;82.70
17887;DHT22;9069;52.044;7.472;2022-07-29T10:11:35;20.80;83.10
17887;DHT22;9069;52.044;7.472;2022-07-29T10:14:16;20.80;82.00
17887;DHT22;9069;52.044;7.472;2022-07-29T10:16:43;20.90;82.10
17887;DHT22;9069;52.044;7.472;2022-07-29T10:19:10;20.90;82.10
17887;DHT22;9069;52.044;7.472;2022-07-29T10:21:37;21.00;82.30
17887;DHT22;9069;52.044;7.472;2022-07-29T10:24:06;21.10;83.10
17887;DHT22;9069;52.044;7.472;2022-07-29T10:26:41;21.20;83.40
17887;DHT22;9069;52.044;7.472;2022-07-29T10:29:08;21.20;83.30
17887;DHT22;9069;52.044;7.472;2022-07-29T10:31:48;21.40;83.20
17887;DHT22;9069;52.044;7.472;2022-07-29T10:34:28;21.40;83.20
17887;DHT22;9069;52.044;7.472;2022-07-29T10:37:28;21.50;83.10
17887;DHT22;9069;52.044;7.472;2022-07-29T10:40:13;21.60;83.00
17887;DHT22;9069;52.044;7.472;2022-07-29T10:43:23;21.70;83.40
17887;DHT22;9069;52.044;7.472;2022-07-29T10:45:56;21.80;82.40
17887;DHT22;9069;52.044;7.472;2022-07-29T10:48:24;21.80;81.60
17887;DHT22;9069;52.044;7.472;2022-07-29T10:53:24;21.90;81.20
17887;DHT22;9069;52.044;7.472;2022-07-29T10:55:52;22.00;80.50
17887;DHT22;9069;52.044;7.472;2022-07-29T10:58:21;22.00;79.80
17887;DHT22;9069;52.044;7.472;2022-07-29T11:01:27;22.00;79.70
17887;DHT22;9069;52.044;7.472;2022-07-29T11:04:04;22.10;79.90
17887;DHT22;9069;52.044;7.472;2022-07-29T11:09:32;22.20;79.70
17887;DHT22;9069;52.044;7.472;2022-07-29T11:13:06;22.20;78.40
17887;DHT22;9069;52.044;7.472;2022-07-29T11:15:15;22.20;77.80
17887;DHT22;9069;52.044;7.472;2022-07-29T11:20:35;22.20;77.00
17887;DHT22;9069;52.044;7.472;2022-07-29T11:31:34;22.20;75.60
17887;DHT22;9069;52.044;7.472;2022-07-29T11:34:24;22.20;75.50
17887;DHT22;9069;52.044;7.472;2022-07-29T11:45:06;22.10;76.10
17887;DHT22;9069;52.044;7.472;2022-07-29T11:47:56;22.10;76.80
17887;DHT22;9069;52.044;7.472;2022-07-29T11:50:46;22.20;76.40
17887;DHT22;9069;52.044;7.472;2022-07-29T11:53:14;22.10;76.30
17887;DHT22;9069;52.044;7.472;2022-07-29T11:55:42;22.10;76.50
17887;DHT22;9069;52.044;7.472;2022-07-29T11:58:22;22.10;76.60
17887;DHT22;9069;52.044;7.472;2022-07-29T12:00:52;22.00;77.50
17887;DHT22;9069;52.044;7.472;2022-07-29T12:03:26;22.00;76.90
17887;DHT22;9069;52.044;7.472;2022-07-29T12:06:13;21.90;77.20
17887;DHT22;9069;52.044;7.472;2022-07-29T12:08:43;21.90;77.00
17887;DHT22;9069;52.044;7.472;2022-07-29T12:11:20;21.80;77.40
17887;DHT22;9069;52.044;7.472;2022-07-29T12:13:50;21.80;78.20
17887;DHT22;9069;52.044;7.472;2022-07-29T12:16:17;21.70;77.90
17887;DHT22;9069;52.044;7.472;2022-07-29T12:18:56;21.70;78.30
17887;DHT22;9069;52.044;7.472;2022-07-29T12:21:23;21.70;79.30
17887;DHT22;9069;52.044;7.472;2022-07-29T12:23:55;21.70;79.60
17887;DHT22;9069;52.044;7.472;2022-07-29T12:26:56;21.60;80.40
17887;DHT22;9069;52.044;7.472;2022-07-29T12:29:24;21.60;80.80
17887;DHT22;9069;52.044;7.472;2022-07-29T12:32:01;21.60;80.50
17887;DHT22;9069;52.044;7.472;2022-07-29T12:34:30;21.60;80.90
17887;DHT22;9069;52.044;7.472;2022-07-29T12:36:57;21.70;81.40
17887;DHT22;9069;52.044;7.472;2022-07-29T12:39:24;21.70;81.60
17887;DHT22;9069;52.044;7.472;2022-07-29T12:41:54;21.70;81.90
17887;DHT22;9069;52.044;7.472;2022-07-29T12:44:46;21.70;81.80
17887;DHT22;9069;52.044;7.472;2022-07-29T12:47:14;21.70;82.10
17887;DHT22;9069;52.044;7.472;2022-07-29T12:49:41;21.80;81.70
17887;DHT22;9069;52.044;7.472;2022-07-29T12:52:31;21.80;81.60
17887;DHT22;9069;52.044;7.472;2022-07-29T12:54:58;21.80;83.70
17887;DHT22;9069;52.044;7.472;2022-07-29T12:57:25;22.00;82.80
17887;DHT22;9069;52.044;7.472;2022-07-29T13:00:09;21.90;82.90
17887;DHT22;9069;52.044;7.472;2022-07-29T13:02:38;21.90;83.30
17887;DHT22;9069;52.044;7.472;2022-07-29T13:05:05;22.00;82.40
17887;DHT22;9069;52.044;7.472;2022-07-29T13:07:33;22.00;83.20
17887;DHT22;9069;52.044;7.472;2022-07-29T13:10:22;22.10;83.10
17887;DHT22;9069;52.044;7.472;2022-07-29T13:13:11;22.20;84.80
17887;DHT22;9069;52.044;7.472;2022-07-29T13:15:40;22.20;84.40
17887;DHT22;9069;52.044;7.472;2022-07-29T13:18:27;22.30;83.60
17887;DHT22;9069;52.044;7.472;2022-07-29T13:20:55;22.40;82.90
17887;DHT22;9069;52.044;7.472;2022-07-29T13:23:21;22.40;82.80
17887;DHT22;9069;52.044;7.472;2022-07-29T13:25:48;22.50;82.80
17887;DHT22;9069;52.044;7.472;2022-07-29T13:28:15;22.60;82.50
17887;DHT22;9069;52.044;7.472;2022-07-29T13:30:43;22.70;81.90
17887;DHT22;9069;52.044;7.472;2022-07-29T13:33:10;22.70;81.60
17887;DHT22;9069;52.044;7.472;2022-07-29T13:35:37;22.80;81.00
17887;DHT22;9069;52.044;7.472;2022-07-29T13:38:05;22.90;80.90
17887;DHT22;9069;52.044;7.472;2022-07-29T13:40:32;23.00;81.00
17887;DHT22;9069;52.044;7.472;2022-07-29T13:43:01;23.10;80.90
17887;DHT22;9069;52.044;7.472;2022-07-29T13:45:29;23.20;80.90
17887;DHT22;9069;52.044;7.472;2022-07-29T13:47:56;23.30;80.50
17887;DHT22;9069;52.044;7.472;2022-07-29T13:50:23;23.40;80.70
17887;DHT22;9069;52.044;7.472;2022-07-29T13:52:49;23.60;80.10
17887;DHT22;9069;52.044;7.472;2022-07-29T13:55:17;23.70;79.60
17887;DHT22;9069;52.044;7.472;2022-07-29T13:57:44;23.80;79.10
17887;DHT22;9069;52.044;7.472;2022-07-29T14:00:11;23.90;77.70
17887;DHT22;9069;52.044;7.472;2022-07-29T14:02:38;24.00;77.00
17887;DHT22;9069;52.044;7.472;2022-07-29T14:05:06;24.10;75.70
17887;DHT22;9069;52.044;7.472;2022-07-29T14:07:34;24.20;75.70
17887;DHT22;9069;52.044;7.472;2022-07-29T14:10:01;24.30;75.00
17887;DHT22;9069;52.044;7.472;2022-07-29T14:12:27;24.40;74.40
17887;DHT22;9069;52.044;7.472;2022-07-29T14:14:54;24.50;74.20
17887;DHT22;9069;52.044;7.472;2022-07-29T14:17:21;24.60;73.60
17887;DHT22;9069;52.044;7.472;2022-07-29T14:19:48;24.70;73.40
17887;DHT22;9069;52.044;7.472;2022-07-29T14:22:15;24.70;72.80
17887;DHT22;9069;52.044;7.472;2022-07-29T14:24:41;24.80;72.50
17887;DHT22;9069;52.044;7.472;2022-07-29T14:27:08;24.90;72.20
17887;DHT22;9069;52.044;7.472;2022-07-29T14:29:36;25.00;72.30
17887;DHT22;9069;52.044;7.472;2022-07-29T14:32:08;25.00;71.40
17887;DHT22;9069;52.044;7.472;2022-07-29T14:34:37;25.10;70.50
17887;DHT22;9069;52.044;7.472;2022-07-29T14:37:04;25.20;70.30
17887;DHT22;9069;52.044;7.472;2022-07-29T14:39:35;25.20;70.20
17887;DHT22;9069;52.044;7.472;2022-07-29T14:42:09;25.30;70.90
17887;DHT22;9069;52.044;7.472;2022-07-29T14:44:39;25.40;69.60
17887;DHT22;9069;52.044;7.472;2022-07-29T14:47:06;25.40;68.90
17887;DHT22;9069;52.044;7.472;2022-07-29T14:49:34;25.50;68.60
17887;DHT22;9069;52.044;7.472;2022-07-29T14:52:01;25.60;68.70
17887;DHT22;9069;52.044;7.472;2022-07-29T14:54:28;25.60;68.80
17887;DHT22;9069;52.044;7.472;2022-07-29T14:56:54;25.60;68.20
17887;DHT22;9069;52.044;7.472;2022-07-29T14:59:24;25.70;68.60
17887;DHT22;9069;52.044;7.472;2022-07-29T15:01:51;25.70;67.90
17887;DHT22;9069;52.044;7.472;2022-07-29T15:04:18;25.70;67.80
17887;DHT22;9069;52.044;7.472;2022-07-29T15:06:45;25.80;67.10
17887;DHT22;9069;52.044;7.472;2022-07-29T15:09:12;25.80;66.60
17887;DHT22;9069;52.044;7.472;2022-07-29T15:11:38;25.80;66.70
17887;DHT22;9069;52.044;7.472;2022-07-29T15:14:05;25.90;66.80
17887;DHT22;9069;52.044;7.472;2022-07-29T15:16:35;25.90;66.40
17887;DHT22;9069;52.044;7.472;2022-07-29T15:19:02;25.90;66.10
17887;DHT22;9069;52.044;7.472;2022-07-29T15:21:29;26.00;65.70
17887;DHT22;9069;52.044;7.472;2022-07-29T15:23:55;26.00;65.60
17887;DHT22;9069;52.044;7.472;2022-07-29T15:26:22;26.00;65.30
17887;DHT22;9069;52.044;7.472;2022-07-29T15:28:49;26.10;65.30
17887;DHT22;9069;52.044;7.472;2022-07-29T15:31:16;26.20;65.30
17887;DHT22;9069;52.044;7.472;2022-07-29T15:33:42;26.20;65.30
17887;DHT22;9069;52.044;7.472;2022-07-29T15:36:09;26.20;65.50
17887;DHT22;9069;52.044;7.472;2022-07-29T15:38:58;26.20;64.70
17887;DHT22;9069;52.044;7.472;2022-07-29T15:41:24;26.30;64.30
17887;DHT22;9069;52.044;7.472;2022-07-29T15:43:51;26.40;63.80
17887;DHT22;9069;52.044;7.472;2022-07-29T15:46:19;26.40;64.20
17887;DHT22;9069;52.044;7.472;2022-07-29T15:49:05;26.50;64.00
17887;DHT22;9069;52.044;7.472;2022-07-29T15:51:33;26.50;63.90
17887;DHT22;9069;52.044;7.472;2022-07-29T15:54:03;26.50;63.50
17887;DHT22;9069;52.044;7.472;2022-07-29T15:56:30;26.60;62.80
17887;DHT22;9069;52.044;7.472;2022-07-29T15:58:58;26.60;62.70
17887;DHT22;9069;52.044;7.472;2022-07-29T16:01:26;26.70;62.50
17887;DHT22;9069;52.044;7.472;2022-07-29T16:03:53;26.70;62.50
17887;DHT22;9069;52.044;7.472;2022-07-29T16:06:20;26.80;62.60
17887;DHT22;9069;52.044;7.472;2022-07-29T16:08:47;26.80;62.70
17887;DHT22;9069;52.044;7.472;2022-07-29T16:11:14;26.80;62.40
17887;DHT22;9069;52.044;7.472;2022-07-29T16:13:40;26.90;61.80
17887;DHT22;9069;52.044;7.472;2022-07-29T16:16:07;26.90;61.30
17887;DHT22;9069;52.044;7.472;2022-07-29T16:18:34;26.90;61.10
17887;DHT22;9069;52.044;7.472;2022-07-29T16:21:01;26.90;61.10
17887;DHT22;9069;52.044;7.472;2022-07-29T16:23:27;27.00;61.30
17887;DHT22;9069;52.044;7.472;2022-07-29T16:25:54;26.90;60.60
17887;DHT22;9069;52.044;7.472;2022-07-29T16:28:30;27.00;60.20
17887;DHT22;9069;52.044;7.472;2022-07-29T16:30:57;27.00;60.10
17887;DHT22;9069;52.044;7.472;2022-07-29T16:33:24;27.00;60.00
17887;DHT22;9069;52.044;7.472;2022-07-29T16:35:51;27.00;59.50
17887;DHT22;9069;52.044;7.472;2022-07-29T16:38:18;27.00;59.50
17887;DHT22;9069;52.044;7.472;2022-07-29T16:40:45;27.00;59.20